Time;durP1;ratioP1;P1;durP2;ratioP2;P2;SDS_P1;SDS_P2;PMS_P1;PMS_P2;Temp;Humidity;BMP_temperature;BMP_pressure;BME280_temperature;BME280_humidity;BME280_pressure;Samples;Min_cycle;Max_cycle;Signal;HPM_P1;HPM_P2
2022/06/25 00:01:23;;;;;;;2.40;2.00;;;17.70;99.90;;;;;;7377247;19;20411;-42
2022/06/25 00:03:53;;;;;;;2.73;1.90;;;17.70;99.90;;;;;;7381545;19;20382;-43
2022/06/25 00:06:25;;;;;;;2.13;1.80;;;17.50;99.90;;;;;;7377551;19;20387;-43
2022/06/25 00:08:54;;;;;;;1.73;1.63;;;17.50;99.90;;;;;;7378529;19;20379;-43
2022/06/25 00:14:08;;;;;;;2.00;1.90;;;17.40;99.90;;;;;;7379182;19;20384;-43
2022/06/25 00:16:38;;;;;;;1.90;1.80;;;17.50;99.90;;;;;;7369584;19;20388;-43
2022/06/25 00:19:08;;;;;;;4.83;1.53;;;17.40;99.90;;;;;;7378277;19;20379;-43
2022/06/25 00:21:40;;;;;;;1.83;1.73;;;17.50;99.90;;;;;;7377162;19;20435;-39
2022/06/25 00:24:11;;;;;;;3.00;1.90;;;17.50;99.90;;;;;;7376801;19;20787;-39
2022/06/25 00:26:41;;;;;;;3.13;1.90;;;17.60;99.90;;;;;;7378359;19;20376;-39
2022/06/25 00:29:11;;;;;;;1.90;1.80;;;17.60;99.90;;;;;;7375839;19;20969;-39
2022/06/25 00:31:41;;;;;;;2.10;1.90;;;17.60;99.90;;;;;;7372609;19;20921;-39
2022/06/25 00:34:10;;;;;;;4.30;2.17;;;17.30;99.90;;;;;;7374268;19;20881;-39
2022/06/25 00:36:42;;;;;;;3.50;1.93;;;17.40;99.90;;;;;;7376575;19;20372;-39
2022/06/25 00:39:15;;;;;;;3.60;2.20;;;17.40;99.90;;;;;;7374423;19;20401;-38
2022/06/25 00:41:45;;;;;;;1.70;1.60;;;17.50;99.90;;;;;;7377643;19;20376;-39
2022/06/25 00:44:16;;;;;;;1.63;1.53;;;17.50;99.90;;;;;;7376931;19;20372;-39
2022/06/25 00:46:48;;;;;;;3.80;2.30;;;17.60;99.90;;;;;;7374076;19;20835;-39
2022/06/25 00:49:18;;;;;;;1.90;1.73;;;17.80;99.90;;;;;;7375831;19;20387;-38
2022/06/25 00:51:53;;;;;;;2.47;1.80;;;17.60;99.90;;;;;;7378805;19;21124;-39
2022/06/25 00:54:26;;;;;;;2.77;1.70;;;17.70;99.90;;;;;;7374844;19;20360;-39
2022/06/25 00:56:59;;;;;;;1.90;1.67;;;17.60;99.90;;;;;;7369679;19;20384;-38
2022/06/25 00:59:32;;;;;;;1.67;1.57;;;17.50;99.90;;;;;;7365263;19;20375;-38
2022/06/25 01:02:02;;;;;;;2.47;1.53;;;17.80;99.90;;;;;;7367921;19;21119;-38
2022/06/25 01:04:32;;;;;;;3.37;2.20;;;17.80;99.90;;;;;;7376218;19;20748;-38
2022/06/25 01:07:04;;;;;;;2.40;1.50;;;17.80;99.90;;;;;;7378006;19;20504;-38
2022/06/25 01:09:34;;;;;;;5.00;1.73;;;17.70;99.90;;;;;;7373553;19;20770;-38
2022/06/25 01:12:08;;;;;;;2.67;2.03;;;17.70;99.90;;;;;;7376814;19;20476;-39
2022/06/25 01:14:37;;;;;;;2.23;1.50;;;17.70;99.90;;;;;;7375745;19;20379;-39
2022/06/25 01:17:09;;;;;;;1.73;1.63;;;17.80;99.90;;;;;;7373655;19;20392;-39
2022/06/25 01:19:40;;;;;;;1.73;1.63;;;17.80;99.90;;;;;;7371023;19;21630;-39
2022/06/25 01:22:12;;;;;;;3.47;1.67;;;17.90;99.90;;;;;;7378452;19;20401;-38
2022/06/25 01:24:42;;;;;;;1.87;1.50;;;18.00;99.90;;;;;;7369947;19;20777;-38
2022/06/25 01:27:16;;;;;;;2.07;1.77;;;17.90;99.90;;;;;;7369200;19;20415;-38
2022/06/25 01:29:46;;;;;;;1.97;1.87;;;17.60;99.90;;;;;;7376421;19;20414;-39
2022/06/25 01:32:15;;;;;;;2.20;1.80;;;17.50;99.90;;;;;;7370158;19;20416;-38
2022/06/25 01:34:45;;;;;;;2.10;1.87;;;17.40;99.90;;;;;;7365754;19;20364;-39
2022/06/25 01:37:17;;;;;;;1.73;1.63;;;17.30;99.90;;;;;;7376090;19;20384;-39
2022/06/25 01:39:47;;;;;;;2.17;1.97;;;17.30;99.90;;;;;;7374189;19;20552;-39
2022/06/25 01:45:00;;;;;;;2.10;1.90;;;17.30;99.90;;;;;;7374400;19;20894;-40
2022/06/25 01:47:30;;;;;;;1.50;1.40;;;17.40;99.90;;;;;;7367495;19;20425;-39
2022/06/25 01:49:59;;;;;;;4.03;1.57;;;17.60;99.90;;;;;;7374747;19;20960;-42
2022/06/25 01:52:31;;;;;;;2.30;1.27;;;17.60;99.90;;;;;;7374198;19;20479;-39
2022/06/25 01:55:03;;;;;;;2.30;1.50;;;17.40;99.90;;;;;;7372108;19;20503;-39
2022/06/25 01:57:33;;;;;;;2.70;1.60;;;17.40;99.90;;;;;;7375402;19;21026;-39
2022/06/25 02:00:03;;;;;;;2.20;1.70;;;17.30;99.90;;;;;;7363578;19;21160;-42
2022/06/25 02:02:44;;;;;;;1.70;1.60;;;17.20;99.90;;;;;;7372318;19;20375;-42
2022/06/25 02:05:16;;;;;;;3.83;1.77;;;17.20;99.90;;;;;;7367693;19;20417;-42
2022/06/25 02:07:48;;;;;;;1.90;1.63;;;17.20;99.90;;;;;;7376467;19;20380;-43
2022/06/25 02:10:22;;;;;;;2.70;1.73;;;17.10;99.90;;;;;;7370722;19;20383;-42
2022/06/25 02:12:52;;;;;;;3.13;1.60;;;17.10;99.90;;;;;;7372185;19;20829;-42
2022/06/25 02:15:21;;;;;;;1.83;1.73;;;17.10;99.90;;;;;;7374663;19;20380;-42
2022/06/25 02:17:51;;;;;;;3.57;1.70;;;17.20;99.90;;;;;;7375064;19;20388;-42
2022/06/25 02:20:22;;;;;;;1.60;1.47;;;17.20;99.90;;;;;;7371590;19;20372;-42
2022/06/25 02:22:55;;;;;;;2.60;2.00;;;17.20;99.90;;;;;;7373516;19;20405;-42
2022/06/25 02:25:25;;;;;;;2.70;1.80;;;17.20;99.90;;;;;;7375032;19;20455;-42
2022/06/25 02:27:54;;;;;;;2.10;1.50;;;17.10;99.90;;;;;;7372143;19;20387;-42
2022/06/25 02:30:26;;;;;;;1.80;1.43;;;17.10;99.90;;;;;;7369667;19;23301;-42
2022/06/25 02:32:56;;;;;;;1.63;1.40;;;17.10;99.90;;;;;;7370828;19;20403;-42
2022/06/25 02:35:26;;;;;;;4.17;1.70;;;17.00;99.90;;;;;;7368566;19;20428;-42
2022/06/25 02:37:58;;;;;;;5.60;1.80;;;17.00;99.90;;;;;;7373149;19;20388;-42
2022/06/25 02:40:32;;;;;;;3.43;1.60;;;17.00;99.90;;;;;;7366677;19;20380;-42
2022/06/25 02:43:01;;;;;;;2.70;1.60;;;17.00;99.90;;;;;;7369730;19;20392;-42
2022/06/25 02:45:34;;;;;;;1.57;1.47;;;17.10;99.90;;;;;;7372824;19;20404;-42
2022/06/25 02:48:04;;;;;;;4.07;1.57;;;17.20;99.90;;;;;;7365136;19;20974;-42
2022/06/25 02:50:33;;;;;;;3.77;1.70;;;17.30;99.90;;;;;;7366199;19;20416;-43
2022/06/25 02:53:05;;;;;;;3.23;1.67;;;17.00;99.90;;;;;;7373175;19;20412;-42
2022/06/25 03:01:09;;;;;;;3.40;1.80;;;16.70;99.90;;;;;;7366377;19;20785;-42
2022/06/25 03:03:39;;;;;;;2.30;1.53;;;16.70;99.90;;;;;;7369470;19;20368;-43
2022/06/25 03:06:09;;;;;;;2.03;1.70;;;16.60;99.90;;;;;;7361955;19;20384;-43
2022/06/25 03:08:41;;;;;;;2.70;1.80;;;16.70;99.90;;;;;;7368352;19;20395;-42
2022/06/25 03:11:11;;;;;;;2.10;1.70;;;16.50;99.90;;;;;;7376288;19;20440;-38
2022/06/25 03:13:41;;;;;;;4.00;1.73;;;16.40;99.90;;;;;;7367008;19;20455;-39
2022/06/25 03:16:11;;;;;;;2.27;1.77;;;16.30;99.90;;;;;;7365905;19;20725;-38
2022/06/25 03:18:43;;;;;;;2.63;1.80;;;16.30;99.90;;;;;;7367779;19;20384;-39
2022/06/25 03:21:46;;;;;;;5.47;1.90;;;16.30;99.90;;;;;;7356325;19;21002;-39
2022/06/25 03:24:19;;;;;;;7.23;2.10;;;16.30;99.90;;;;;;7365368;19;20399;-39
2022/06/25 03:26:49;;;;;;;3.83;1.90;;;16.20;99.90;;;;;;7371348;19;20372;-39
2022/06/25 03:29:19;;;;;;;2.50;1.90;;;16.30;99.90;;;;;;7369990;19;20387;-39
2022/06/25 03:31:49;;;;;;;3.83;1.97;;;16.30;99.90;;;;;;7371032;19;20705;-39
2022/06/25 03:34:39;;;;;;;1.70;1.60;;;16.30;99.90;;;;;;7374071;19;20384;-39
2022/06/25 03:37:09;;;;;;;2.23;1.50;;;16.30;99.90;;;;;;7370584;19;21738;-40
2022/06/25 03:39:42;;;;;;;2.23;1.63;;;16.50;99.90;;;;;;7369572;19;20375;-39
2022/06/25 03:42:12;;;;;;;3.33;1.87;;;16.50;99.90;;;;;;7371239;19;20375;-43
2022/06/25 03:44:51;;;;;;;2.30;1.87;;;16.40;99.90;;;;;;7369108;19;20390;-43
2022/06/25 03:47:32;;;;;;;2.20;1.60;;;16.40;99.90;;;;;;7363880;19;20995;-43
2022/06/25 03:50:05;;;;;;;5.83;1.50;;;16.60;99.90;;;;;;7371050;19;20420;-44
2022/06/25 03:52:35;;;;;;;3.40;1.93;;;16.80;99.90;;;;;;7368693;19;21161;-43
2022/06/25 03:55:08;;;;;;;2.23;1.50;;;16.80;99.90;;;;;;7370515;19;20399;-44
2022/06/25 03:57:40;;;;;;;3.30;2.00;;;16.70;99.90;;;;;;7373938;19;20399;-43
2022/06/25 04:00:32;;;;;;;3.10;1.60;;;16.60;99.90;;;;;;7369879;19;20409;-43
2022/06/25 04:03:03;;;;;;;2.23;1.37;;;16.70;99.90;;;;;;7365235;19;20419;-43
2022/06/25 04:05:33;;;;;;;2.03;1.43;;;16.70;99.90;;;;;;7373669;19;20412;-43
2022/06/25 04:08:21;;;;;;;3.93;1.53;;;16.90;99.90;;;;;;7368915;19;20424;-43
2022/06/25 04:10:56;;;;;;;1.70;1.50;;;17.00;99.90;;;;;;7362131;19;20412;-44
2022/06/25 04:13:25;;;;;;;2.10;1.90;;;17.10;99.90;;;;;;7368814;19;20412;-44
2022/06/25 04:15:55;;;;;;;1.93;1.37;;;17.20;99.90;;;;;;7364746;19;20404;-44
2022/06/25 04:18:24;;;;;;;1.60;1.50;;;17.20;99.90;;;;;;7371530;19;20376;-44
2022/06/25 04:20:54;;;;;;;2.73;1.40;;;17.30;99.90;;;;;;7363781;19;20391;-43
2022/06/25 04:23:26;;;;;;;2.23;1.40;;;17.30;99.90;;;;;;7366233;19;20410;-43
2022/06/25 04:25:58;;;;;;;1.63;1.53;;;17.30;99.90;;;;;;7365256;19;20371;-43
2022/06/25 04:31:31;;;;;;;1.50;1.40;;;17.80;99.90;;;;;;7367535;19;20368;-43
2022/06/25 04:34:01;;;;;;;2.73;1.73;;;17.80;99.90;;;;;;7369468;19;20788;-42
2022/06/25 04:36:30;;;;;;;3.07;1.70;;;18.10;99.90;;;;;;7375887;19;20408;-42
2022/06/25 04:39:06;;;;;;;2.30;1.30;;;18.30;99.90;;;;;;7372866;19;20484;-42
2022/06/25 04:41:39;;;;;;;1.00;1.00;;;18.30;99.90;;;;;;7375163;19;20412;-42
2022/06/25 04:44:15;;;;;;;1.63;1.50;;;18.40;99.90;;;;;;7376290;19;20384;-43
2022/06/25 04:46:47;;;;;;;4.80;1.80;;;18.40;99.90;;;;;;7370260;19;20466;-42
2022/06/25 04:49:19;;;;;;;2.03;1.30;;;18.30;99.90;;;;;;7371488;19;20467;-43
2022/06/25 04:51:49;;;;;;;1.27;1.00;;;18.30;99.90;;;;;;7373557;19;20996;-43
2022/06/25 04:54:19;;;;;;;1.33;1.23;;;18.40;99.90;;;;;;7372269;19;21264;-43
2022/06/25 04:56:57;;;;;;;2.13;1.40;;;18.50;99.90;;;;;;7376515;19;20379;-43
2022/06/25 04:59:26;;;;;;;1.60;1.37;;;18.80;99.90;;;;;;7372984;19;20372;-43
2022/06/25 05:02:07;;;;;;;1.70;1.07;;;19.00;99.90;;;;;;7370777;19;20495;-42
2022/06/25 05:04:46;;;;;;;2.97;1.10;;;19.10;99.90;;;;;;7371471;19;20451;-43
2022/06/25 05:07:15;;;;;;;1.77;1.00;;;19.20;99.90;;;;;;7366570;19;20395;-42
2022/06/25 05:09:45;;;;;;;3.23;1.77;;;19.20;99.90;;;;;;7369246;19;21087;-43
2022/06/25 05:15:04;;;;;;;3.10;1.13;;;18.80;99.90;;;;;;7373458;19;20382;-43
2022/06/25 05:17:36;;;;;;;1.03;1.03;;;18.80;99.90;;;;;;7372624;19;20381;-43
2022/06/25 05:20:07;;;;;;;1.40;1.30;;;18.50;99.90;;;;;;7371674;19;20803;-43
2022/06/25 05:22:37;;;;;;;1.53;1.13;;;18.70;99.90;;;;;;7368328;19;20413;-44
2022/06/25 05:25:09;;;;;;;4.43;1.30;;;18.50;99.90;;;;;;7363145;19;20421;-43
2022/06/25 05:27:44;;;;;;;3.30;1.30;;;18.60;99.90;;;;;;7348002;19;20407;-44
2022/06/25 05:30:14;;;;;;;2.50;1.50;;;18.70;99.90;;;;;;7361200;19;20731;-44
2022/06/25 05:32:43;;;;;;;3.77;1.33;;;18.60;99.90;;;;;;7368063;19;20412;-45
2022/06/25 05:35:13;;;;;;;1.83;1.23;;;18.60;99.90;;;;;;7375250;19;20383;-45
2022/06/25 05:37:42;;;;;;;1.87;1.73;;;18.80;99.90;;;;;;7372720;19;20782;-45
2022/06/25 05:40:14;;;;;;;2.43;1.43;;;18.60;99.90;;;;;;7371937;19;20383;-44
2022/06/25 05:42:46;;;;;;;1.63;1.20;;;18.70;99.90;;;;;;7368571;19;20420;-44
2022/06/25 05:45:16;;;;;;;1.27;1.07;;;18.80;99.90;;;;;;7375106;19;20424;-44
2022/06/25 05:47:45;;;;;;;1.70;1.60;;;18.80;99.90;;;;;;7369746;19;20469;-44
2022/06/25 05:50:15;;;;;;;2.63;1.30;;;19.20;99.90;;;;;;7372642;19;20376;-44
2022/06/25 05:52:44;;;;;;;1.20;1.10;;;19.20;99.90;;;;;;7365020;19;20964;-44
2022/06/25 05:55:13;;;;;;;1.80;1.13;;;19.40;99.90;;;;;;7363647;19;20419;-45
2022/06/25 05:57:48;;;;;;;1.93;1.20;;;19.60;99.90;;;;;;7353791;19;21275;-44
2022/06/25 06:00:19;;;;;;;3.50;1.40;;;19.80;99.90;;;;;;7365947;19;20421;-44
2022/06/25 06:02:49;;;;;;;2.40;1.37;;;19.90;99.90;;;;;;7360398;19;20376;-44
2022/06/25 06:05:18;;;;;;;1.00;0.83;;;20.00;99.90;;;;;;7358225;19;20419;-44
2022/06/25 06:07:48;;;;;;;1.00;1.00;;;20.00;99.90;;;;;;7351784;19;20515;-44
2022/06/25 06:10:17;;;;;;;1.40;1.30;;;19.90;99.90;;;;;;7371926;19;20383;-44
2022/06/25 06:12:49;;;;;;;2.13;1.60;;;19.90;99.90;;;;;;7359750;19;20893;-44
2022/06/25 06:15:19;;;;;;;1.63;1.53;;;20.10;99.90;;;;;;7361117;19;20408;-44
2022/06/25 06:17:48;;;;;;;8.70;1.50;;;20.10;99.90;;;;;;7372787;19;20376;-44
2022/06/25 06:20:18;;;;;;;2.00;1.30;;;20.20;99.90;;;;;;7374995;19;20689;-44
2022/06/25 06:22:47;;;;;;;2.40;1.30;;;20.20;99.90;;;;;;7361667;19;21576;-44
2022/06/25 06:25:17;;;;;;;1.93;1.40;;;20.10;99.90;;;;;;7367079;19;20441;-44
2022/06/25 06:27:49;;;;;;;3.20;1.30;;;20.00;99.90;;;;;;7372778;19;20380;-43
2022/06/25 06:30:18;;;;;;;2.07;1.37;;;19.90;99.90;;;;;;7360958;19;20939;-44
2022/06/25 06:32:48;;;;;;;2.10;1.50;;;20.00;99.90;;;;;;7370081;19;20412;-44
2022/06/25 06:35:18;;;;;;;2.03;1.20;;;20.30;99.90;;;;;;7367848;19;20381;-44
2022/06/25 06:37:48;;;;;;;3.50;1.40;;;20.60;99.90;;;;;;7373174;19;20404;-44
2022/06/25 06:40:17;;;;;;;3.10;1.40;;;20.80;99.90;;;;;;7354512;19;20412;-43
2022/06/25 06:42:49;;;;;;;3.13;1.43;;;21.10;99.90;;;;;;7355839;19;20379;-44
2022/06/25 06:45:19;;;;;;;2.37;1.27;;;21.30;99.90;;;;;;7368772;19;20423;-45
2022/06/25 06:47:48;;;;;;;1.17;1.07;;;21.50;99.90;;;;;;7363272;19;21222;-41
2022/06/25 06:50:18;;;;;;;1.97;1.40;;;21.80;99.90;;;;;;7360732;19;20412;-41
2022/06/25 06:52:48;;;;;;;1.30;1.20;;;22.00;99.90;;;;;;7366742;19;21158;-40
2022/06/25 06:55:20;;;;;;;2.53;1.60;;;22.10;99.20;;;;;;7352612;19;20942;-42
2022/06/25 06:57:55;;;;;;;2.80;1.20;;;22.10;98.30;;;;;;7348753;19;20409;-40
2022/06/25 07:00:25;;;;;;;1.67;1.20;;;21.90;99.70;;;;;;7344964;19;21172;-41
2022/06/25 07:02:54;;;;;;;1.80;1.17;;;22.00;99.90;;;;;;7370209;19;20389;-41
2022/06/25 07:05:23;;;;;;;1.47;1.00;;;22.10;99.70;;;;;;7365258;19;20384;-41
2022/06/25 07:07:53;;;;;;;1.17;1.07;;;22.20;99.30;;;;;;7346501;19;20415;-44
2022/06/25 07:10:23;;;;;;;1.77;1.60;;;22.30;96.80;;;;;;7356485;19;22040;-41
2022/06/25 07:13:10;;;;;;;1.50;1.40;;;22.20;96.20;;;;;;7355921;19;21879;-41
2022/06/25 07:15:40;;;;;;;3.60;1.60;;;22.20;98.30;;;;;;7363540;19;20382;-41
2022/06/25 07:18:10;;;;;;;4.83;2.30;;;22.30;98.60;;;;;;7345202;19;20956;-39
2022/06/25 07:20:39;;;;;;;4.50;1.27;;;22.50;97.80;;;;;;7360161;19;20407;-39
2022/06/25 07:23:09;;;;;;;2.30;1.30;;;22.40;97.40;;;;;;7369977;19;20383;-39
2022/06/25 07:25:38;;;;;;;1.53;1.43;;;22.00;97.20;;;;;;7369798;19;20441;-40
2022/06/25 07:28:10;;;;;;;3.23;1.03;;;22.10;98.30;;;;;;7362590;19;20423;-40
2022/06/25 07:30:40;;;;;;;1.93;1.27;;;21.70;97.70;;;;;;7370038;19;20376;-45
2022/06/25 07:33:10;;;;;;;2.00;1.53;;;21.70;98.30;;;;;;7365745;19;20416;-43
2022/06/25 07:35:39;;;;;;;2.70;1.20;;;22.00;97.70;;;;;;7373024;19;20376;-43
2022/06/25 07:38:09;;;;;;;11.23;1.97;;;22.40;95.80;;;;;;7373794;19;20364;-43
2022/06/25 07:40:38;;;;;;;1.60;1.20;;;22.60;95.70;;;;;;7375178;19;20402;-43
2022/06/25 07:43:13;;;;;;;2.23;1.67;;;22.80;94.80;;;;;;7367259;19;20844;-45
2022/06/25 07:45:42;;;;;;;1.97;1.33;;;23.00;93.90;;;;;;7375275;19;21269;-44
2022/06/25 07:48:14;;;;;;;2.70;1.30;;;22.70;93.90;;;;;;7374718;19;20380;-45
2022/06/25 07:53:25;;;;;;;2.70;1.33;;;22.30;96.30;;;;;;7367932;19;20364;-44
2022/06/25 07:55:55;;;;;;;2.53;1.50;;;22.50;96.90;;;;;;7374812;19;20413;-43
2022/06/25 07:58:28;;;;;;;3.30;1.90;;;22.50;95.20;;;;;;7372153;19;20424;-45
2022/06/25 08:00:57;;;;;;;2.73;1.70;;;22.80;93.30;;;;;;7371463;19;20380;-43
2022/06/25 08:03:27;;;;;;;2.73;1.47;;;23.10;93.10;;;;;;7372204;19;20463;-44
2022/06/25 08:05:59;;;;;;;3.90;2.40;;;23.30;91.80;;;;;;7372197;19;20383;-44
2022/06/25 08:08:29;;;;;;;3.70;1.37;;;23.60;90.90;;;;;;7370684;19;20477;-43
2022/06/25 08:10:59;;;;;;;3.70;2.30;;;23.80;90.20;;;;;;7372528;19;20384;-44
2022/06/25 08:13:31;;;;;;;3.83;1.67;;;23.80;86.90;;;;;;7375820;19;20379;-44
2022/06/25 08:16:03;;;;;;;5.00;2.40;;;23.90;87.30;;;;;;7375926;19;21084;-44
2022/06/25 08:18:33;;;;;;;1.60;1.10;;;23.80;87.50;;;;;;7383884;19;20480;-43
2022/06/25 08:21:04;;;;;;;3.73;1.60;;;23.60;86.70;;;;;;7377240;19;20809;-44
2022/06/25 08:23:36;;;;;;;1.93;1.30;;;23.60;88.40;;;;;;7380426;19;20419;-44
2022/06/25 08:26:06;;;;;;;1.87;1.70;;;23.60;88.10;;;;;;7380539;19;20368;-43
2022/06/25 08:28:38;;;;;;;3.00;1.40;;;23.30;88.70;;;;;;7382498;19;20451;-43
2022/06/25 08:31:07;;;;;;;3.30;1.90;;;23.10;90.60;;;;;;7367946;19;20954;-43
2022/06/25 08:33:37;;;;;;;2.00;1.30;;;23.10;90.60;;;;;;7379993;19;20403;-44
2022/06/25 08:36:07;;;;;;;4.33;1.87;;;23.30;90.20;;;;;;7377952;19;20395;-44
2022/06/25 08:38:36;;;;;;;4.00;1.50;;;23.30;90.10;;;;;;7381287;19;20409;-43
2022/06/25 08:41:06;;;;;;;1.50;1.23;;;23.40;90.00;;;;;;7378033;19;20368;-44
2022/06/25 08:43:38;;;;;;;1.80;1.50;;;23.60;90.00;;;;;;7374505;19;20381;-43
2022/06/25 08:46:08;;;;;;;1.53;1.40;;;23.20;87.80;;;;;;7375045;19;21024;-44
2022/06/25 08:48:38;;;;;;;1.97;1.77;;;23.30;90.00;;;;;;7372965;19;20375;-44
2022/06/25 08:51:08;;;;;;;2.07;1.77;;;23.30;89.00;;;;;;7376877;19;20388;-43
2022/06/25 08:53:38;;;;;;;2.80;1.73;;;22.90;86.80;;;;;;7371392;19;20982;-44
2022/06/25 08:56:09;;;;;;;2.30;1.40;;;23.40;87.50;;;;;;7382458;19;20858;-44
2022/06/25 08:58:45;;;;;;;1.93;1.43;;;23.70;87.50;;;;;;7370029;19;20368;-43
2022/06/25 09:01:14;;;;;;;3.90;1.70;;;24.00;85.10;;;;;;7377549;19;20408;-43
2022/06/25 09:03:45;;;;;;;1.90;1.20;;;24.40;81.10;;;;;;7377002;19;20414;-43
2022/06/25 09:06:16;;;;;;;2.50;1.40;;;24.70;83.20;;;;;;7380255;19;20459;-44
2022/06/25 09:08:46;;;;;;;1.40;1.30;;;24.70;87.30;;;;;;7376170;19;20845;-40
2022/06/25 09:11:16;;;;;;;5.40;1.57;;;24.60;85.10;;;;;;7379191;19;20380;-43
2022/06/25 09:13:51;;;;;;;1.93;1.30;;;23.90;82.90;;;;;;7366796;19;20388;-44
2022/06/25 09:16:26;;;;;;;1.90;1.70;;;24.20;82.10;;;;;;7375911;19;20483;-43
2022/06/25 09:18:56;;;;;;;1.20;1.10;;;24.20;80.40;;;;;;7374736;19;20383;-43
2022/06/25 09:21:28;;;;;;;2.03;1.57;;;24.60;80.40;;;;;;7375781;19;20413;-43
2022/06/25 09:24:03;;;;;;;3.73;1.70;;;24.80;80.00;;;;;;7376161;19;20758;-42
2022/06/25 09:26:33;;;;;;;1.77;1.67;;;24.60;79.60;;;;;;7373841;19;20375;-43
2022/06/25 09:29:05;;;;;;;1.90;1.30;;;24.30;80.10;;;;;;7376473;19;20765;-44
2022/06/25 09:31:39;;;;;;;2.60;1.33;;;24.40;79.50;;;;;;7373234;19;20963;-43
2022/06/25 09:34:10;;;;;;;1.60;1.40;;;24.80;78.80;;;;;;7377774;19;20387;-44
2022/06/25 09:36:40;;;;;;;1.40;1.30;;;24.70;78.00;;;;;;7368895;19;20432;-45
2022/06/25 09:39:09;;;;;;;3.00;1.57;;;25.10;81.60;;;;;;7375494;19;20392;-44
2022/06/25 09:41:53;;;;;;;1.90;1.53;;;25.30;84.10;;;;;;7374487;19;20380;-43
2022/06/25 09:44:26;;;;;;;2.13;1.93;;;25.30;83.40;;;;;;7376281;19;20407;-44
2022/06/25 09:46:57;;;;;;;2.17;1.40;;;25.20;83.60;;;;;;7376154;19;20440;-43
2022/06/25 09:49:29;;;;;;;1.37;1.27;;;25.10;83.00;;;;;;7377004;19;20379;-43
2022/06/25 09:52:02;;;;;;;2.00;1.30;;;24.70;84.40;;;;;;7377678;19;20381;-43
2022/06/25 09:54:32;;;;;;;2.03;1.60;;;25.20;84.40;;;;;;7374354;19;20415;-42
2022/06/25 09:57:03;;;;;;;3.03;2.37;;;24.90;82.50;;;;;;7365264;19;20368;-43
2022/06/25 09:59:35;;;;;;;2.30;1.57;;;25.30;82.90;;;;;;7375816;19;20431;-45
2022/06/25 10:02:06;;;;;;;1.30;1.20;;;24.90;83.90;;;;;;7371505;19;20441;-43
2022/06/25 10:04:36;;;;;;;3.50;1.70;;;25.00;85.50;;;;;;7377243;19;21089;-44
2022/06/25 10:07:11;;;;;;;1.67;1.30;;;25.50;83.70;;;;;;7367873;19;21166;-44
2022/06/25 10:09:44;;;;;;;1.73;1.40;;;25.70;83.40;;;;;;7371700;19;20520;-40
2022/06/25 10:12:15;;;;;;;2.57;1.23;;;26.20;82.40;;;;;;7376958;19;20388;-40
2022/06/25 10:14:47;;;;;;;1.40;1.30;;;26.20;83.30;;;;;;7368579;19;20404;-40
2022/06/25 10:17:20;;;;;;;1.63;1.37;;;26.20;81.30;;;;;;7376509;19;20380;-40
2022/06/25 10:19:50;;;;;;;2.83;1.40;;;26.00;77.10;;;;;;7373922;19;20399;-40
2022/06/25 10:22:22;;;;;;;3.80;1.50;;;26.20;78.80;;;;;;7376900;19;20373;-40
2022/06/25 10:24:52;;;;;;;2.83;1.30;;;26.40;77.70;;;;;;7375900;19;20551;-40
2022/06/25 10:27:24;;;;;;;3.27;1.77;;;26.30;76.10;;;;;;7371542;19;20372;-40
2022/06/25 10:29:58;;;;;;;3.30;1.30;;;26.50;77.50;;;;;;7365734;19;20380;-40
2022/06/25 10:32:34;;;;;;;4.33;1.70;;;26.70;75.00;;;;;;7374949;19;21761;-39
2022/06/25 10:35:04;;;;;;;2.40;1.20;;;26.60;69.80;;;;;;7370400;19;20391;-40
2022/06/25 10:38:02;;;;;;;2.50;1.77;;;26.60;70.30;;;;;;7374719;19;20391;-40
2022/06/25 10:40:33;;;;;;;2.40;1.50;;;26.40;67.20;;;;;;7376999;19;20419;-44
2022/06/25 10:43:04;;;;;;;2.43;1.50;;;25.80;71.40;;;;;;7374391;19;20372;-44
2022/06/25 10:45:49;;;;;;;1.50;1.40;;;25.80;72.10;;;;;;7376432;19;20980;-44
2022/06/25 10:48:22;;;;;;;2.13;1.40;;;26.30;78.90;;;;;;7375297;19;20392;-44
2022/06/25 10:50:52;;;;;;;2.90;1.40;;;26.00;59.70;;;;;;7362765;19;20384;-43
2022/06/25 10:53:27;;;;;;;3.17;1.53;;;26.50;59.50;;;;;;7370789;19;20408;-43
2022/06/25 10:56:13;;;;;;;2.23;1.60;;;27.00;59.30;;;;;;7375287;19;20379;-43
2022/06/25 10:58:49;;;;;;;2.03;1.80;;;27.10;59.80;;;;;;7374152;19;20878;-43
2022/06/25 11:01:39;;;;;;;1.90;1.63;;;27.40;60.60;;;;;;7367011;19;20383;-43
2022/06/25 11:04:10;;;;;;;4.17;1.50;;;27.80;60.40;;;;;;7373493;19;20401;-44
2022/06/25 11:06:41;;;;;;;2.87;1.83;;;27.60;66.50;;;;;;7358983;19;20461;-43
2022/06/25 11:09:15;;;;;;;1.97;1.53;;;27.10;65.10;;;;;;7376659;19;20368;-43
2022/06/25 11:11:47;;;;;;;1.73;1.30;;;27.10;65.70;;;;;;7369661;19;20372;-43
2022/06/25 11:14:21;;;;;;;2.20;1.80;;;27.20;65.00;;;;;;7375927;19;20379;-43
2022/06/25 11:16:55;;;;;;;2.40;1.30;;;27.30;64.00;;;;;;7375316;19;20387;-43
2022/06/25 11:19:26;;;;;;;1.50;1.30;;;27.50;59.90;;;;;;7374401;19;20476;-43
2022/06/25 11:21:55;;;;;;;1.30;1.20;;;27.60;60.70;;;;;;7373376;19;20817;-44
2022/06/25 11:24:26;;;;;;;2.23;1.70;;;27.60;62.30;;;;;;7365205;19;20425;-43
2022/06/25 11:29:46;;;;;;;2.20;1.57;;;28.00;59.60;;;;;;7373906;19;20369;-44
2022/06/25 11:32:22;;;;;;;1.67;1.40;;;28.30;59.20;;;;;;7363613;19;20957;-44
2022/06/25 11:34:54;;;;;;;4.17;1.67;;;28.00;55.40;;;;;;7342057;19;20384;-43
2022/06/25 11:37:24;;;;;;;6.07;1.60;;;28.00;56.20;;;;;;7349116;19;20769;-43
2022/06/25 11:39:54;;;;;;;1.87;1.43;;;27.70;54.30;;;;;;7360932;19;20451;-44
2022/06/25 11:42:24;;;;;;;2.03;1.40;;;27.80;55.40;;;;;;7366714;19;20380;-44
2022/06/25 11:44:55;;;;;;;2.07;1.30;;;28.20;55.10;;;;;;7378686;19;20409;-45
2022/06/25 11:47:31;;;;;;;2.13;1.13;;;28.50;52.00;;;;;;7370737;19;20428;-44
2022/06/25 11:50:01;;;;;;;1.73;1.40;;;28.00;55.40;;;;;;7380907;19;20490;-45
2022/06/25 11:52:31;;;;;;;1.60;1.13;;;28.10;56.40;;;;;;7379834;19;20447;-44
2022/06/25 11:55:01;;;;;;;2.03;1.30;;;28.30;55.90;;;;;;7379730;19;20368;-44
2022/06/25 11:57:34;;;;;;;2.37;1.13;;;28.00;55.10;;;;;;7380188;19;20368;-43
2022/06/25 12:00:04;;;;;;;1.37;1.00;;;27.80;55.80;;;;;;7381058;19;21021;-44
2022/06/25 12:02:43;;;;;;;2.00;1.27;;;28.10;57.50;;;;;;7380427;19;20407;-44
2022/06/25 12:05:13;;;;;;;1.60;1.37;;;28.10;57.10;;;;;;7379990;19;20754;-44
2022/06/25 12:07:48;;;;;;;1.90;1.40;;;28.30;58.10;;;;;;7380255;19;20765;-44
2022/06/25 12:10:17;;;;;;;1.77;1.33;;;28.40;57.10;;;;;;7378870;19;20379;-44
2022/06/25 12:12:48;;;;;;;2.70;1.63;;;28.50;68.20;;;;;;7381379;19;20957;-45
2022/06/25 12:15:18;;;;;;;1.30;1.20;;;;;;;;;;7379146;19;20375;-44
2022/06/25 12:17:50;;;;;;;3.07;1.40;;;28.70;70.10;;;;;;7380446;19;20384;-44
2022/06/25 12:20:22;;;;;;;2.30;1.23;;;28.60;78.20;;;;;;7379803;19;20952;-44
2022/06/25 12:22:53;;;;;;;2.30;1.23;;;28.40;51.60;;;;;;7380138;19;20375;-44
2022/06/25 12:25:26;;;;;;;1.30;1.10;;;28.10;52.00;;;;;;7377268;19;20384;-44
2022/06/25 12:27:55;;;;;;;1.10;0.93;;;28.00;50.40;;;;;;7382528;19;20368;-44
2022/06/25 12:30:26;;;;;;;1.90;1.00;;;28.00;51.90;;;;;;7377968;19;20546;-44
2022/06/25 12:33:06;;;;;;;4.67;1.67;;;28.30;49.60;;;;;;7380197;19;21000;-44
2022/06/25 12:35:36;;;;;;;2.50;1.30;;;28.10;51.20;;;;;;7380486;19;20373;-44
2022/06/25 12:38:07;;;;;;;2.03;1.37;;;28.10;51.90;;;;;;7378939;19;20380;-43
2022/06/25 12:40:44;;;;;;;1.50;0.93;;;28.40;51.20;;;;;;7379976;19;20779;-44
2022/06/25 12:43:15;;;;;;;2.00;1.00;;;28.80;49.30;;;;;;7380434;19;20387;-44
2022/06/25 12:45:47;;;;;;;1.33;1.23;;;29.00;49.30;;;;;;7379588;19;20480;-44
2022/06/25 12:48:32;;;;;;;1.20;1.10;;;29.10;49.00;;;;;;7378557;19;20412;-44
2022/06/25 12:51:11;;;;;;;1.90;1.10;;;29.10;47.70;;;;;;7376896;19;20400;-40
2022/06/25 12:53:42;;;;;;;2.13;1.47;;;29.30;46.60;;;;;;7370851;19;20962;-41
2022/06/25 12:56:12;;;;;;;2.37;1.27;;;29.50;46.20;;;;;;7377694;19;20484;-41
2022/06/25 12:58:43;;;;;;;2.40;1.30;;;29.50;45.00;;;;;;7372677;19;20511;-40
2022/06/25 13:01:22;;;;;;;2.33;1.37;;;29.30;45.50;;;;;;7370721;19;20404;-40
2022/06/25 13:03:55;;;;;;;1.33;1.23;;;29.00;46.20;;;;;;7379115;19;20403;-39
2022/06/25 13:06:24;;;;;;;0.83;0.83;;;28.60;46.00;;;;;;7378545;19;20376;-40
2022/06/25 13:08:54;;;;;;;1.10;1.00;;;27.80;44.80;;;;;;7371319;19;20975;-39
2022/06/25 13:11:26;;;;;;;2.47;1.20;;;28.10;45.50;;;;;;7370761;19;20380;-39
2022/06/25 13:13:58;;;;;;;2.10;1.03;;;28.60;45.40;;;;;;7376557;19;20372;-40
2022/06/25 13:16:27;;;;;;;1.60;0.90;;;28.50;45.40;;;;;;7363545;19;20404;-39
2022/06/25 13:18:59;;;;;;;2.00;1.27;;;28.40;45.80;;;;;;7349036;19;20470;-39
2022/06/25 13:21:29;;;;;;;2.10;1.40;;;28.50;46.30;;;;;;7368960;19;20408;-39
2022/06/25 13:23:58;;;;;;;1.37;1.23;;;28.50;46.50;;;;;;7378988;19;20440;-40
2022/06/25 13:26:28;;;;;;;1.37;1.23;;;28.60;46.20;;;;;;7367769;19;20412;-41
2022/06/25 13:28:57;;;;;;;1.13;1.03;;;28.40;46.20;;;;;;7376892;19;20434;-38
2022/06/25 13:31:27;;;;;;;1.10;0.90;;;28.70;47.10;;;;;;7372011;19;20471;-40
2022/06/25 13:33:59;;;;;;;1.83;1.23;;;28.60;46.50;;;;;;7374844;19;21059;-40